sensor_id;sensor_type;location;lat;lon;timestamp;P1;durP1;ratioP1;P2;durP2;ratioP2
13079;SDS011;6606;49.154;9.280;2023-03-01T00:02:19;24.50;;;15.40;;
13079;SDS011;6606;49.154;9.280;2023-03-01T00:05:01;20.90;;;13.47;;
13079;SDS011;6606;49.154;9.280;2023-03-01T00:07:43;23.37;;;14.50;;
13079;SDS011;6606;49.154;9.280;2023-03-01T00:10:25;22.73;;;15.77;;
13079;SDS011;6606;49.154;9.280;2023-03-01T00:13:07;21.83;;;14.80;;
13079;SDS011;6606;49.154;9.280;2023-03-01T00:15:48;23.83;;;15.20;;
13079;SDS011;6606;49.154;9.280;2023-03-01T00:18:32;22.67;;;15.53;;
13079;SDS011;6606;49.154;9.280;2023-03-01T00:21:14;23.20;;;15.23;;
13079;SDS011;6606;49.154;9.280;2023-03-01T00:24:03;21.70;;;13.60;;
13079;SDS011;6606;49.154;9.280;2023-03-01T00:26:45;21.87;;;14.20;;
13079;SDS011;6606;49.154;9.280;2023-03-01T00:29:27;18.47;;;13.80;;
13079;SDS011;6606;49.154;9.280;2023-03-01T00:32:09;26.27;;;13.87;;
13079;SDS011;6606;49.154;9.280;2023-03-01T00:34:52;18.93;;;13.17;;
13079;SDS011;6606;49.154;9.280;2023-03-01T00:37:35;18.97;;;13.33;;
13079;SDS011;6606;49.154;9.280;2023-03-01T00:40:16;19.47;;;13.33;;
13079;SDS011;6606;49.154;9.280;2023-03-01T00:42:59;19.20;;;13.27;;
13079;SDS011;6606;49.154;9.280;2023-03-01T00:45:41;21.73;;;13.70;;
13079;SDS011;6606;49.154;9.280;2023-03-01T00:48:22;20.07;;;12.73;;
13079;SDS011;6606;49.154;9.280;2023-03-01T00:51:06;20.97;;;13.07;;
13079;SDS011;6606;49.154;9.280;2023-03-01T00:53:50;20.23;;;12.97;;
13079;SDS011;6606;49.154;9.280;2023-03-01T00:56:32;19.53;;;13.00;;
13079;SDS011;6606;49.154;9.280;2023-03-01T00:59:14;18.17;;;12.17;;
13079;SDS011;6606;49.154;9.280;2023-03-01T01:01:55;17.43;;;12.53;;
13079;SDS011;6606;49.154;9.280;2023-03-01T01:04:37;18.20;;;12.57;;
13079;SDS011;6606;49.154;9.280;2023-03-01T01:07:20;18.27;;;12.07;;
13079;SDS011;6606;49.154;9.280;2023-03-01T01:10:02;20.17;;;12.57;;
13079;SDS011;6606;49.154;9.280;2023-03-01T01:12:44;21.30;;;12.80;;
13079;SDS011;6606;49.154;9.280;2023-03-01T01:15:26;19.53;;;12.43;;
13079;SDS011;6606;49.154;9.280;2023-03-01T01:18:08;18.97;;;12.63;;
13079;SDS011;6606;49.154;9.280;2023-03-01T01:20:49;18.83;;;13.27;;
13079;SDS011;6606;49.154;9.280;2023-03-01T01:23:33;17.20;;;12.17;;
13079;SDS011;6606;49.154;9.280;2023-03-01T01:26:15;18.17;;;12.50;;
13079;SDS011;6606;49.154;9.280;2023-03-01T01:28:59;18.43;;;13.20;;
13079;SDS011;6606;49.154;9.280;2023-03-01T01:31:41;18.57;;;13.27;;
13079;SDS011;6606;49.154;9.280;2023-03-01T01:34:24;20.33;;;13.60;;
13079;SDS011;6606;49.154;9.280;2023-03-01T01:37:06;22.43;;;13.83;;
13079;SDS011;6606;49.154;9.280;2023-03-01T01:39:49;22.47;;;13.03;;
13079;SDS011;6606;49.154;9.280;2023-03-01T01:42:31;20.40;;;13.13;;
13079;SDS011;6606;49.154;9.280;2023-03-01T01:45:27;19.73;;;13.37;;
13079;SDS011;6606;49.154;9.280;2023-03-01T01:48:12;18.17;;;12.70;;
13079;SDS011;6606;49.154;9.280;2023-03-01T01:50:59;18.90;;;12.77;;
13079;SDS011;6606;49.154;9.280;2023-03-01T01:53:42;18.60;;;13.07;;
13079;SDS011;6606;49.154;9.280;2023-03-01T01:56:29;21.70;;;13.70;;
13079;SDS011;6606;49.154;9.280;2023-03-01T01:59:11;23.73;;;13.70;;
13079;SDS011;6606;49.154;9.280;2023-03-01T02:01:53;20.33;;;14.10;;
13079;SDS011;6606;49.154;9.280;2023-03-01T02:04:35;21.43;;;14.40;;
13079;SDS011;6606;49.154;9.280;2023-03-01T02:07:18;18.50;;;12.90;;
13079;SDS011;6606;49.154;9.280;2023-03-01T02:10:02;21.77;;;13.37;;
13079;SDS011;6606;49.154;9.280;2023-03-01T02:12:45;22.17;;;14.03;;
13079;SDS011;6606;49.154;9.280;2023-03-01T02:15:27;20.57;;;12.77;;
13079;SDS011;6606;49.154;9.280;2023-03-01T02:18:15;20.53;;;14.80;;
13079;SDS011;6606;49.154;9.280;2023-03-01T02:21:03;21.17;;;12.63;;
13079;SDS011;6606;49.154;9.280;2023-03-01T02:23:53;19.63;;;13.33;;
13079;SDS011;6606;49.154;9.280;2023-03-01T02:26:39;20.50;;;13.50;;
13079;SDS011;6606;49.154;9.280;2023-03-01T02:29:25;20.00;;;12.93;;
13079;SDS011;6606;49.154;9.280;2023-03-01T02:32:08;19.83;;;13.43;;
13079;SDS011;6606;49.154;9.280;2023-03-01T02:34:50;20.50;;;13.03;;
13079;SDS011;6606;49.154;9.280;2023-03-01T02:37:33;23.97;;;15.47;;
13079;SDS011;6606;49.154;9.280;2023-03-01T02:40:18;22.83;;;14.20;;
13079;SDS011;6606;49.154;9.280;2023-03-01T02:43:01;22.50;;;14.50;;
13079;SDS011;6606;49.154;9.280;2023-03-01T02:45:51;20.53;;;13.50;;
13079;SDS011;6606;49.154;9.280;2023-03-01T02:48:41;20.17;;;13.47;;
13079;SDS011;6606;49.154;9.280;2023-03-01T02:51:26;19.23;;;13.53;;
13079;SDS011;6606;49.154;9.280;2023-03-01T02:54:19;21.40;;;13.60;;
13079;SDS011;6606;49.154;9.280;2023-03-01T02:57:06;23.03;;;15.30;;
13079;SDS011;6606;49.154;9.280;2023-03-01T02:59:49;21.17;;;13.73;;
13079;SDS011;6606;49.154;9.280;2023-03-01T03:02:35;21.23;;;13.83;;
13079;SDS011;6606;49.154;9.280;2023-03-01T03:05:21;21.13;;;13.27;;
13079;SDS011;6606;49.154;9.280;2023-03-01T03:08:08;21.90;;;13.80;;
13079;SDS011;6606;49.154;9.280;2023-03-01T03:10:51;23.63;;;14.33;;
13079;SDS011;6606;49.154;9.280;2023-03-01T03:13:33;23.80;;;15.37;;
13079;SDS011;6606;49.154;9.280;2023-03-01T03:16:15;22.67;;;15.20;;
13079;SDS011;6606;49.154;9.280;2023-03-01T03:18:58;22.23;;;14.23;;
13079;SDS011;6606;49.154;9.280;2023-03-01T03:21:45;25.23;;;15.37;;
13079;SDS011;6606;49.154;9.280;2023-03-01T03:24:26;21.90;;;14.27;;
13079;SDS011;6606;49.154;9.280;2023-03-01T03:27:18;25.07;;;15.30;;
13079;SDS011;6606;49.154;9.280;2023-03-01T03:29:59;23.03;;;15.17;;
13079;SDS011;6606;49.154;9.280;2023-03-01T03:32:42;21.47;;;14.57;;
13079;SDS011;6606;49.154;9.280;2023-03-01T03:35:34;25.23;;;14.97;;
13079;SDS011;6606;49.154;9.280;2023-03-01T03:38:20;20.20;;;12.97;;
13079;SDS011;6606;49.154;9.280;2023-03-01T03:41:03;20.30;;;14.20;;
13079;SDS011;6606;49.154;9.280;2023-03-01T03:43:47;21.77;;;15.07;;
13079;SDS011;6606;49.154;9.280;2023-03-01T03:46:29;23.37;;;14.07;;
13079;SDS011;6606;49.154;9.280;2023-03-01T03:49:10;26.57;;;16.27;;
13079;SDS011;6606;49.154;9.280;2023-03-01T03:51:53;23.67;;;14.67;;
13079;SDS011;6606;49.154;9.280;2023-03-01T03:54:35;25.60;;;14.80;;
13079;SDS011;6606;49.154;9.280;2023-03-01T03:57:17;24.23;;;15.70;;
13079;SDS011;6606;49.154;9.280;2023-03-01T03:59:58;21.27;;;14.70;;
13079;SDS011;6606;49.154;9.280;2023-03-01T04:02:41;25.03;;;15.70;;
13079;SDS011;6606;49.154;9.280;2023-03-01T04:05:23;21.90;;;14.47;;
13079;SDS011;6606;49.154;9.280;2023-03-01T04:08:06;20.53;;;14.03;;
13079;SDS011;6606;49.154;9.280;2023-03-01T04:10:49;26.07;;;15.93;;
13079;SDS011;6606;49.154;9.280;2023-03-01T04:13:32;22.80;;;14.80;;
13079;SDS011;6606;49.154;9.280;2023-03-01T04:16:14;24.00;;;15.40;;
13079;SDS011;6606;49.154;9.280;2023-03-01T04:18:55;25.50;;;15.87;;
13079;SDS011;6606;49.154;9.280;2023-03-01T04:21:39;25.00;;;16.43;;
13079;SDS011;6606;49.154;9.280;2023-03-01T04:24:29;26.47;;;16.57;;
13079;SDS011;6606;49.154;9.280;2023-03-01T04:28:02;24.40;;;15.10;;
13079;SDS011;6606;49.154;9.280;2023-03-01T04:30:45;23.70;;;15.63;;
13079;SDS011;6606;49.154;9.280;2023-03-01T04:33:35;26.70;;;16.83;;
13079;SDS011;6606;49.154;9.280;2023-03-01T04:36:17;24.13;;;15.37;;
13079;SDS011;6606;49.154;9.280;2023-03-01T04:38:59;29.20;;;16.80;;
13079;SDS011;6606;49.154;9.280;2023-03-01T04:41:53;27.53;;;17.43;;
13079;SDS011;6606;49.154;9.280;2023-03-01T04:44:35;21.03;;;14.97;;
13079;SDS011;6606;49.154;9.280;2023-03-01T04:47:16;27.17;;;16.13;;
13079;SDS011;6606;49.154;9.280;2023-03-01T04:49:58;25.43;;;16.33;;
13079;SDS011;6606;49.154;9.280;2023-03-01T04:52:40;28.47;;;17.47;;
13079;SDS011;6606;49.154;9.280;2023-03-01T04:55:22;25.53;;;16.30;;
13079;SDS011;6606;49.154;9.280;2023-03-01T04:58:07;27.10;;;16.87;;
13079;SDS011;6606;49.154;9.280;2023-03-01T05:00:49;23.47;;;16.57;;
13079;SDS011;6606;49.154;9.280;2023-03-01T05:03:31;25.00;;;16.50;;
13079;SDS011;6606;49.154;9.280;2023-03-01T05:06:13;27.20;;;16.87;;
13079;SDS011;6606;49.154;9.280;2023-03-01T05:08:55;24.87;;;16.40;;
13079;SDS011;6606;49.154;9.280;2023-03-01T05:11:37;25.50;;;17.13;;
13079;SDS011;6606;49.154;9.280;2023-03-01T05:14:20;27.40;;;16.67;;
13079;SDS011;6606;49.154;9.280;2023-03-01T05:17:02;28.00;;;17.67;;
13079;SDS011;6606;49.154;9.280;2023-03-01T05:19:44;26.07;;;16.70;;
13079;SDS011;6606;49.154;9.280;2023-03-01T05:22:26;29.43;;;17.00;;
13079;SDS011;6606;49.154;9.280;2023-03-01T05:25:08;27.33;;;17.10;;
13079;SDS011;6606;49.154;9.280;2023-03-01T05:27:50;25.63;;;17.17;;
13079;SDS011;6606;49.154;9.280;2023-03-01T05:30:40;26.60;;;17.33;;
13079;SDS011;6606;49.154;9.280;2023-03-01T05:33:25;25.37;;;17.03;;
13079;SDS011;6606;49.154;9.280;2023-03-01T05:36:08;24.20;;;16.53;;
13079;SDS011;6606;49.154;9.280;2023-03-01T05:38:54;27.13;;;16.63;;
13079;SDS011;6606;49.154;9.280;2023-03-01T05:41:36;28.17;;;17.43;;
13079;SDS011;6606;49.154;9.280;2023-03-01T05:44:17;27.03;;;17.43;;
13079;SDS011;6606;49.154;9.280;2023-03-01T05:47:01;25.03;;;16.30;;
13079;SDS011;6606;49.154;9.280;2023-03-01T05:49:42;28.20;;;17.90;;
13079;SDS011;6606;49.154;9.280;2023-03-01T05:52:24;26.43;;;16.53;;
13079;SDS011;6606;49.154;9.280;2023-03-01T05:55:06;27.73;;;17.70;;
13079;SDS011;6606;49.154;9.280;2023-03-01T05:57:48;29.47;;;18.07;;
13079;SDS011;6606;49.154;9.280;2023-03-01T06:00:31;28.63;;;18.53;;
13079;SDS011;6606;49.154;9.280;2023-03-01T06:03:15;28.03;;;17.57;;
13079;SDS011;6606;49.154;9.280;2023-03-01T06:05:57;31.73;;;21.47;;
13079;SDS011;6606;49.154;9.280;2023-03-01T06:08:39;28.07;;;18.67;;
13079;SDS011;6606;49.154;9.280;2023-03-01T06:11:21;26.63;;;16.87;;
13079;SDS011;6606;49.154;9.280;2023-03-01T06:14:03;28.97;;;18.50;;
13079;SDS011;6606;49.154;9.280;2023-03-01T06:16:46;30.27;;;18.27;;
13079;SDS011;6606;49.154;9.280;2023-03-01T06:19:29;31.17;;;18.87;;
13079;SDS011;6606;49.154;9.280;2023-03-01T06:22:11;30.43;;;19.03;;
13079;SDS011;6606;49.154;9.280;2023-03-01T06:24:53;32.50;;;18.73;;
13079;SDS011;6606;49.154;9.280;2023-03-01T06:27:35;31.23;;;19.27;;
13079;SDS011;6606;49.154;9.280;2023-03-01T06:30:17;29.60;;;18.10;;
13079;SDS011;6606;49.154;9.280;2023-03-01T06:33:01;31.63;;;18.93;;
13079;SDS011;6606;49.154;9.280;2023-03-01T06:35:45;29.67;;;17.60;;
13079;SDS011;6606;49.154;9.280;2023-03-01T06:38:27;37.57;;;20.77;;
13079;SDS011;6606;49.154;9.280;2023-03-01T06:41:09;30.30;;;18.60;;
13079;SDS011;6606;49.154;9.280;2023-03-01T06:43:51;33.37;;;19.73;;
13079;SDS011;6606;49.154;9.280;2023-03-01T06:46:34;31.53;;;18.43;;
13079;SDS011;6606;49.154;9.280;2023-03-01T06:49:16;33.03;;;20.00;;
13079;SDS011;6606;49.154;9.280;2023-03-01T06:51:59;36.70;;;19.20;;
13079;SDS011;6606;49.154;9.280;2023-03-01T06:54:41;26.70;;;17.20;;
13079;SDS011;6606;49.154;9.280;2023-03-01T06:57:23;29.70;;;18.53;;
13079;SDS011;6606;49.154;9.280;2023-03-01T07:00:05;29.43;;;18.80;;
13079;SDS011;6606;49.154;9.280;2023-03-01T07:02:48;27.47;;;18.57;;
13079;SDS011;6606;49.154;9.280;2023-03-01T07:05:30;35.40;;;19.00;;
13079;SDS011;6606;49.154;9.280;2023-03-01T07:08:13;29.30;;;17.60;;
13079;SDS011;6606;49.154;9.280;2023-03-01T07:10:55;32.40;;;19.13;;
13079;SDS011;6606;49.154;9.280;2023-03-01T07:13:37;33.03;;;19.33;;
13079;SDS011;6606;49.154;9.280;2023-03-01T07:16:19;29.33;;;18.93;;
13079;SDS011;6606;49.154;9.280;2023-03-01T07:19:01;30.23;;;19.43;;
13079;SDS011;6606;49.154;9.280;2023-03-01T07:21:43;32.40;;;20.27;;
13079;SDS011;6606;49.154;9.280;2023-03-01T07:24:26;33.77;;;20.27;;
13079;SDS011;6606;49.154;9.280;2023-03-01T07:27:08;29.27;;;18.63;;
13079;SDS011;6606;49.154;9.280;2023-03-01T07:29:51;26.90;;;18.30;;
13079;SDS011;6606;49.154;9.280;2023-03-01T07:32:32;29.63;;;17.60;;
13079;SDS011;6606;49.154;9.280;2023-03-01T07:35:14;27.77;;;17.57;;
13079;SDS011;6606;49.154;9.280;2023-03-01T07:37:56;25.30;;;17.07;;
13079;SDS011;6606;49.154;9.280;2023-03-01T07:40:39;26.83;;;17.70;;
13079;SDS011;6606;49.154;9.280;2023-03-01T07:43:24;25.60;;;17.63;;
13079;SDS011;6606;49.154;9.280;2023-03-01T07:46:05;25.03;;;16.97;;
13079;SDS011;6606;49.154;9.280;2023-03-01T07:48:47;22.57;;;16.63;;
13079;SDS011;6606;49.154;9.280;2023-03-01T07:51:31;21.70;;;15.57;;
13079;SDS011;6606;49.154;9.280;2023-03-01T07:54:13;23.80;;;16.30;;
13079;SDS011;6606;49.154;9.280;2023-03-01T07:56:57;21.93;;;16.07;;
13079;SDS011;6606;49.154;9.280;2023-03-01T07:59:39;23.07;;;16.57;;
13079;SDS011;6606;49.154;9.280;2023-03-01T08:02:21;27.47;;;17.70;;
13079;SDS011;6606;49.154;9.280;2023-03-01T08:05:02;23.60;;;17.10;;
13079;SDS011;6606;49.154;9.280;2023-03-01T08:07:47;23.27;;;16.50;;
13079;SDS011;6606;49.154;9.280;2023-03-01T08:10:29;26.67;;;17.87;;
13079;SDS011;6606;49.154;9.280;2023-03-01T08:13:12;26.20;;;17.47;;
13079;SDS011;6606;49.154;9.280;2023-03-01T08:15:54;25.33;;;17.47;;
13079;SDS011;6606;49.154;9.280;2023-03-01T08:18:36;27.03;;;18.93;;
13079;SDS011;6606;49.154;9.280;2023-03-01T08:21:18;24.67;;;16.30;;
13079;SDS011;6606;49.154;9.280;2023-03-01T08:24:00;26.20;;;17.63;;
13079;SDS011;6606;49.154;9.280;2023-03-01T08:26:42;25.37;;;18.03;;
13079;SDS011;6606;49.154;9.280;2023-03-01T08:29:27;23.97;;;16.53;;
13079;SDS011;6606;49.154;9.280;2023-03-01T08:32:10;24.67;;;17.60;;
13079;SDS011;6606;49.154;9.280;2023-03-01T08:34:52;26.77;;;17.63;;
13079;SDS011;6606;49.154;9.280;2023-03-01T08:37:33;26.00;;;16.53;;
13079;SDS011;6606;49.154;9.280;2023-03-01T08:40:15;25.63;;;17.70;;
13079;SDS011;6606;49.154;9.280;2023-03-01T08:42:57;28.23;;;17.57;;
13079;SDS011;6606;49.154;9.280;2023-03-01T08:45:40;32.47;;;18.47;;
13079;SDS011;6606;49.154;9.280;2023-03-01T08:48:23;29.10;;;20.70;;
13079;SDS011;6606;49.154;9.280;2023-03-01T08:51:09;28.27;;;17.73;;
13079;SDS011;6606;49.154;9.280;2023-03-01T08:53:52;29.83;;;20.73;;
13079;SDS011;6606;49.154;9.280;2023-03-01T08:56:34;23.63;;;17.17;;
13079;SDS011;6606;49.154;9.280;2023-03-01T08:59:16;25.77;;;18.77;;
13079;SDS011;6606;49.154;9.280;2023-03-01T09:02:01;26.27;;;17.67;;
13079;SDS011;6606;49.154;9.280;2023-03-01T09:04:43;26.93;;;17.97;;
13079;SDS011;6606;49.154;9.280;2023-03-01T09:07:25;26.27;;;17.37;;
13079;SDS011;6606;49.154;9.280;2023-03-01T09:10:09;28.37;;;18.77;;
13079;SDS011;6606;49.154;9.280;2023-03-01T09:12:51;27.10;;;18.70;;
13079;SDS011;6606;49.154;9.280;2023-03-01T09:15:33;24.33;;;18.53;;
13079;SDS011;6606;49.154;9.280;2023-03-01T09:18:16;28.73;;;18.30;;
13079;SDS011;6606;49.154;9.280;2023-03-01T09:21:02;25.67;;;17.50;;
13079;SDS011;6606;49.154;9.280;2023-03-01T09:23:47;25.53;;;17.53;;
13079;SDS011;6606;49.154;9.280;2023-03-01T09:26:29;24.50;;;17.40;;
13079;SDS011;6606;49.154;9.280;2023-03-01T09:29:14;26.03;;;18.83;;
13079;SDS011;6606;49.154;9.280;2023-03-01T09:31:56;27.67;;;18.87;;
13079;SDS011;6606;49.154;9.280;2023-03-01T09:34:39;29.23;;;19.00;;
13079;SDS011;6606;49.154;9.280;2023-03-01T09:37:36;24.53;;;16.80;;
13079;SDS011;6606;49.154;9.280;2023-03-01T09:40:19;24.87;;;18.33;;
13079;SDS011;6606;49.154;9.280;2023-03-01T09:43:03;30.77;;;20.47;;
13079;SDS011;6606;49.154;9.280;2023-03-01T09:45:53;25.20;;;18.63;;
13079;SDS011;6606;49.154;9.280;2023-03-01T09:48:41;23.77;;;18.30;;
13079;SDS011;6606;49.154;9.280;2023-03-01T09:51:29;25.93;;;18.93;;
13079;SDS011;6606;49.154;9.280;2023-03-01T09:54:13;22.47;;;17.97;;
13079;SDS011;6606;49.154;9.280;2023-03-01T09:57:06;26.37;;;17.87;;
13079;SDS011;6606;49.154;9.280;2023-03-01T10:00:03;25.50;;;17.73;;
13079;SDS011;6606;49.154;9.280;2023-03-01T10:03:08;22.63;;;17.40;;
13079;SDS011;6606;49.154;9.280;2023-03-01T10:05:59;22.60;;;18.30;;
13079;SDS011;6606;49.154;9.280;2023-03-01T10:08:50;23.30;;;17.53;;
13079;SDS011;6606;49.154;9.280;2023-03-01T10:11:38;22.40;;;17.73;;
13079;SDS011;6606;49.154;9.280;2023-03-01T10:14:28;24.73;;;17.20;;
13079;SDS011;6606;49.154;9.280;2023-03-01T10:17:17;25.63;;;18.47;;
13079;SDS011;6606;49.154;9.280;2023-03-01T10:20:15;24.93;;;17.77;;
13079;SDS011;6606;49.154;9.280;2023-03-01T10:23:00;33.27;;;18.00;;
13079;SDS011;6606;49.154;9.280;2023-03-01T10:25:47;32.27;;;18.67;;
13079;SDS011;6606;49.154;9.280;2023-03-01T10:28:40;26.13;;;17.47;;
13079;SDS011;6606;49.154;9.280;2023-03-01T10:31:31;28.77;;;17.83;;
13079;SDS011;6606;49.154;9.280;2023-03-01T10:34:27;24.43;;;18.37;;
13079;SDS011;6606;49.154;9.280;2023-03-01T10:37:11;26.63;;;18.60;;
13079;SDS011;6606;49.154;9.280;2023-03-01T10:39:57;22.27;;;17.43;;
13079;SDS011;6606;49.154;9.280;2023-03-01T10:42:47;23.63;;;17.60;;
13079;SDS011;6606;49.154;9.280;2023-03-01T10:45:33;23.00;;;17.20;;
13079;SDS011;6606;49.154;9.280;2023-03-01T10:48:17;23.87;;;17.73;;
13079;SDS011;6606;49.154;9.280;2023-03-01T10:51:06;23.93;;;17.80;;
13079;SDS011;6606;49.154;9.280;2023-03-01T10:53:49;24.83;;;17.80;;
13079;SDS011;6606;49.154;9.280;2023-03-01T10:56:35;23.27;;;17.87;;
13079;SDS011;6606;49.154;9.280;2023-03-01T10:59:30;23.80;;;17.17;;
13079;SDS011;6606;49.154;9.280;2023-03-01T11:02:15;24.70;;;18.50;;
13079;SDS011;6606;49.154;9.280;2023-03-01T11:04:59;25.07;;;18.17;;
13079;SDS011;6606;49.154;9.280;2023-03-01T11:07:49;23.30;;;17.30;;
13079;SDS011;6606;49.154;9.280;2023-03-01T11:10:32;23.13;;;17.53;;
13079;SDS011;6606;49.154;9.280;2023-03-01T11:13:17;26.70;;;17.50;;
13079;SDS011;6606;49.154;9.280;2023-03-01T11:16:03;21.30;;;16.80;;
13079;SDS011;6606;49.154;9.280;2023-03-01T11:18:46;24.40;;;17.90;;
13079;SDS011;6606;49.154;9.280;2023-03-01T11:21:38;23.77;;;17.83;;
13079;SDS011;6606;49.154;9.280;2023-03-01T11:24:26;24.50;;;17.60;;
13079;SDS011;6606;49.154;9.280;2023-03-01T11:27:15;22.60;;;17.67;;
13079;SDS011;6606;49.154;9.280;2023-03-01T11:30:00;22.57;;;17.50;;
13079;SDS011;6606;49.154;9.280;2023-03-01T11:32:50;24.47;;;18.27;;
13079;SDS011;6606;49.154;9.280;2023-03-01T11:35:47;24.97;;;18.00;;
13079;SDS011;6606;49.154;9.280;2023-03-01T11:38:36;22.50;;;17.60;;
13079;SDS011;6606;49.154;9.280;2023-03-01T11:41:20;22.23;;;17.33;;
13079;SDS011;6606;49.154;9.280;2023-03-01T11:44:10;25.10;;;18.33;;
13079;SDS011;6606;49.154;9.280;2023-03-01T11:50:05;24.20;;;17.30;;
13079;SDS011;6606;49.154;9.280;2023-03-01T11:53:07;20.90;;;16.10;;
13079;SDS011;6606;49.154;9.280;2023-03-01T11:56:09;23.27;;;17.73;;
13079;SDS011;6606;49.154;9.280;2023-03-01T11:59:07;24.20;;;18.03;;
13079;SDS011;6606;49.154;9.280;2023-03-01T12:02:19;23.83;;;17.13;;
13079;SDS011;6606;49.154;9.280;2023-03-01T12:05:40;25.77;;;17.23;;
13079;SDS011;6606;49.154;9.280;2023-03-01T12:08:33;24.43;;;17.77;;
13079;SDS011;6606;49.154;9.280;2023-03-01T12:11:21;24.23;;;17.20;;
13079;SDS011;6606;49.154;9.280;2023-03-01T12:17:32;21.93;;;16.40;;
13079;SDS011;6606;49.154;9.280;2023-03-01T12:20:46;29.73;;;18.90;;
13079;SDS011;6606;49.154;9.280;2023-03-01T12:23:45;21.57;;;17.70;;
13079;SDS011;6606;49.154;9.280;2023-03-01T12:26:43;22.37;;;16.17;;
13079;SDS011;6606;49.154;9.280;2023-03-01T12:29:34;21.80;;;17.27;;
13079;SDS011;6606;49.154;9.280;2023-03-01T12:32:24;28.23;;;17.77;;
13079;SDS011;6606;49.154;9.280;2023-03-01T12:35:27;30.40;;;17.93;;
13079;SDS011;6606;49.154;9.280;2023-03-01T12:38:22;24.43;;;16.80;;
13079;SDS011;6606;49.154;9.280;2023-03-01T12:41:25;26.43;;;16.63;;
13079;SDS011;6606;49.154;9.280;2023-03-01T12:44:23;20.70;;;16.90;;
13079;SDS011;6606;49.154;9.280;2023-03-01T12:47:18;24.70;;;16.77;;
13079;SDS011;6606;49.154;9.280;2023-03-01T12:50:11;25.43;;;16.90;;
13079;SDS011;6606;49.154;9.280;2023-03-01T12:52:58;22.87;;;16.87;;
13079;SDS011;6606;49.154;9.280;2023-03-01T12:55:42;21.40;;;16.57;;
13079;SDS011;6606;49.154;9.280;2023-03-01T12:58:27;23.33;;;16.80;;
13079;SDS011;6606;49.154;9.280;2023-03-01T13:01:45;21.03;;;15.93;;
13079;SDS011;6606;49.154;9.280;2023-03-01T13:05:39;22.10;;;16.50;;
13079;SDS011;6606;49.154;9.280;2023-03-01T13:08:46;35.93;;;16.80;;
13079;SDS011;6606;49.154;9.280;2023-03-01T13:15:47;21.63;;;15.87;;
13079;SDS011;6606;49.154;9.280;2023-03-01T13:18:53;19.90;;;16.17;;
13079;SDS011;6606;49.154;9.280;2023-03-01T13:22:48;20.63;;;15.63;;
13079;SDS011;6606;49.154;9.280;2023-03-01T13:34:03;25.00;;;17.40;;
13079;SDS011;6606;49.154;9.280;2023-03-01T13:37:52;27.90;;;16.87;;
13079;SDS011;6606;49.154;9.280;2023-03-01T13:45:57;21.50;;;16.30;;
13079;SDS011;6606;49.154;9.280;2023-03-01T13:53:22;20.17;;;15.67;;
13079;SDS011;6606;49.154;9.280;2023-03-01T14:00:57;18.87;;;15.13;;
13079;SDS011;6606;49.154;9.280;2023-03-01T14:03:48;23.50;;;16.20;;
13079;SDS011;6606;49.154;9.280;2023-03-01T14:06:31;24.87;;;15.93;;
13079;SDS011;6606;49.154;9.280;2023-03-01T14:09:17;20.63;;;15.47;;
13079;SDS011;6606;49.154;9.280;2023-03-01T14:12:12;20.60;;;15.63;;
13079;SDS011;6606;49.154;9.280;2023-03-01T14:15:15;19.40;;;14.97;;
13079;SDS011;6606;49.154;9.280;2023-03-01T14:18:04;21.27;;;15.63;;
13079;SDS011;6606;49.154;9.280;2023-03-01T14:20:51;20.23;;;15.60;;
13079;SDS011;6606;49.154;9.280;2023-03-01T14:23:33;19.77;;;16.13;;
13079;SDS011;6606;49.154;9.280;2023-03-01T14:26:21;22.63;;;15.40;;
13079;SDS011;6606;49.154;9.280;2023-03-01T14:29:03;24.23;;;16.17;;
13079;SDS011;6606;49.154;9.280;2023-03-01T14:31:45;39.63;;;17.30;;
13079;SDS011;6606;49.154;9.280;2023-03-01T14:34:27;26.87;;;16.27;;
13079;SDS011;6606;49.154;9.280;2023-03-01T14:37:20;22.27;;;15.47;;
13079;SDS011;6606;49.154;9.280;2023-03-01T14:40:57;23.23;;;15.20;;
13079;SDS011;6606;49.154;9.280;2023-03-01T14:43:43;20.03;;;15.67;;
13079;SDS011;6606;49.154;9.280;2023-03-01T14:46:28;23.00;;;15.10;;
13079;SDS011;6606;49.154;9.280;2023-03-01T14:53:15;21.63;;;16.90;;
13079;SDS011;6606;49.154;9.280;2023-03-01T14:56:02;21.43;;;15.67;;
13079;SDS011;6606;49.154;9.280;2023-03-01T14:59:55;34.90;;;22.67;;
13079;SDS011;6606;49.154;9.280;2023-03-01T15:02:45;31.87;;;22.03;;
13079;SDS011;6606;49.154;9.280;2023-03-01T15:05:30;21.97;;;15.90;;
13079;SDS011;6606;49.154;9.280;2023-03-01T15:08:26;34.50;;;19.73;;
13079;SDS011;6606;49.154;9.280;2023-03-01T15:12:44;35.40;;;25.23;;
13079;SDS011;6606;49.154;9.280;2023-03-01T15:15:47;22.13;;;15.90;;
13079;SDS011;6606;49.154;9.280;2023-03-01T15:18:31;24.27;;;16.20;;
13079;SDS011;6606;49.154;9.280;2023-03-01T15:21:17;22.80;;;15.43;;
13079;SDS011;6606;49.154;9.280;2023-03-01T15:24:16;19.90;;;15.80;;
13079;SDS011;6606;49.154;9.280;2023-03-01T15:27:01;21.50;;;15.90;;
13079;SDS011;6606;49.154;9.280;2023-03-01T15:29:48;20.97;;;15.53;;
13079;SDS011;6606;49.154;9.280;2023-03-01T15:32:33;22.23;;;14.80;;
13079;SDS011;6606;49.154;9.280;2023-03-01T15:38:27;21.73;;;15.33;;
13079;SDS011;6606;49.154;9.280;2023-03-01T15:41:23;21.80;;;15.83;;
13079;SDS011;6606;49.154;9.280;2023-03-01T15:44:14;19.60;;;14.40;;
13079;SDS011;6606;49.154;9.280;2023-03-01T15:46:57;19.83;;;15.00;;
13079;SDS011;6606;49.154;9.280;2023-03-01T15:49:41;19.80;;;15.20;;
13079;SDS011;6606;49.154;9.280;2023-03-01T15:52:25;19.23;;;15.07;;
13079;SDS011;6606;49.154;9.280;2023-03-01T15:55:14;19.67;;;14.93;;
13079;SDS011;6606;49.154;9.280;2023-03-01T15:57:59;23.00;;;15.27;;
13079;SDS011;6606;49.154;9.280;2023-03-01T16:00:42;18.83;;;14.43;;
13079;SDS011;6606;49.154;9.280;2023-03-01T16:03:24;18.30;;;14.93;;
13079;SDS011;6606;49.154;9.280;2023-03-01T16:06:08;19.37;;;14.90;;
13079;SDS011;6606;49.154;9.280;2023-03-01T16:08:51;18.03;;;14.23;;
13079;SDS011;6606;49.154;9.280;2023-03-01T16:11:32;22.17;;;14.80;;
13079;SDS011;6606;49.154;9.280;2023-03-01T16:14:17;21.93;;;15.13;;
13079;SDS011;6606;49.154;9.280;2023-03-01T16:16:59;19.00;;;15.20;;
13079;SDS011;6606;49.154;9.280;2023-03-01T16:19:41;20.47;;;14.40;;
13079;SDS011;6606;49.154;9.280;2023-03-01T16:22:24;20.50;;;14.50;;
13079;SDS011;6606;49.154;9.280;2023-03-01T16:25:07;20.17;;;15.70;;
13079;SDS011;6606;49.154;9.280;2023-03-01T16:27:50;20.53;;;15.20;;
13079;SDS011;6606;49.154;9.280;2023-03-01T16:30:32;22.33;;;15.40;;
13079;SDS011;6606;49.154;9.280;2023-03-01T16:33:15;19.10;;;13.97;;
13079;SDS011;6606;49.154;9.280;2023-03-01T16:35:57;19.03;;;14.03;;
13079;SDS011;6606;49.154;9.280;2023-03-01T16:38:41;22.67;;;15.00;;
13079;SDS011;6606;49.154;9.280;2023-03-01T16:41:23;22.47;;;14.60;;
13079;SDS011;6606;49.154;9.280;2023-03-01T16:44:05;18.50;;;14.07;;
13079;SDS011;6606;49.154;9.280;2023-03-01T16:46:47;19.10;;;14.57;;
13079;SDS011;6606;49.154;9.280;2023-03-01T16:49:28;19.60;;;14.90;;
13079;SDS011;6606;49.154;9.280;2023-03-01T16:52:10;19.63;;;14.13;;
13079;SDS011;6606;49.154;9.280;2023-03-01T16:54:55;22.07;;;14.67;;
13079;SDS011;6606;49.154;9.280;2023-03-01T16:57:37;20.20;;;15.10;;
13079;SDS011;6606;49.154;9.280;2023-03-01T17:00:20;19.07;;;13.87;;
13079;SDS011;6606;49.154;9.280;2023-03-01T17:03:03;21.30;;;15.20;;
13079;SDS011;6606;49.154;9.280;2023-03-01T17:05:44;20.50;;;15.03;;
13079;SDS011;6606;49.154;9.280;2023-03-01T17:08:26;20.90;;;15.17;;
13079;SDS011;6606;49.154;9.280;2023-03-01T17:11:10;20.97;;;14.93;;